createdAt,value
2023-04-25T00:01:21.168Z,20.10
2023-04-25T00:03:48.244Z,19.85
2023-04-25T00:06:15.550Z,19.95
2023-04-25T00:08:42.483Z,20.48
2023-04-25T00:11:09.110Z,21.27
2023-04-25T00:13:35.773Z,19.83
2023-04-25T00:16:03.577Z,19.20
2023-04-25T00:18:30.496Z,20.95
2023-04-25T00:20:57.243Z,19.65
2023-04-25T00:23:24.757Z,20.75
2023-04-25T00:25:51.846Z,19.45
2023-04-25T00:28:18.596Z,19.88
2023-04-25T00:30:45.421Z,20.45
2023-04-25T00:33:12.266Z,18.27
2023-04-25T00:35:39.310Z,18.33
2023-04-25T00:38:06.199Z,19.77
2023-04-25T00:40:32.940Z,19.23
2023-04-25T00:42:59.613Z,18.33
2023-04-25T00:45:30.480Z,18.80
2023-04-25T00:47:57.588Z,18.65
2023-04-25T00:50:25.536Z,20.15
2023-04-25T00:52:53.100Z,17.73
2023-04-25T00:55:20.852Z,20.42
2023-04-25T00:57:47.868Z,20.67
2023-04-25T01:00:15.543Z,20.83
2023-04-25T01:02:43.364Z,20.40
2023-04-25T01:05:10.384Z,20.48
2023-04-25T01:07:37.254Z,22.02
2023-04-25T01:10:04.823Z,20.73
2023-04-25T01:12:31.740Z,22.45
2023-04-25T01:14:58.655Z,23.15
2023-04-25T01:17:25.358Z,23.05
2023-04-25T01:19:52.333Z,22.02
2023-04-25T01:22:19.572Z,22.65
2023-04-25T01:24:46.945Z,20.48
2023-04-25T01:27:14.306Z,22.45
2023-04-25T01:29:41.406Z,23.00
2023-04-25T01:32:08.512Z,21.48
2023-04-25T01:34:35.464Z,22.60
2023-04-25T01:37:02.746Z,20.08
2023-04-25T01:39:29.698Z,20.45
2023-04-25T01:41:57.597Z,19.63
2023-04-25T01:44:24.460Z,20.83
2023-04-25T01:46:51.190Z,23.30
2023-04-25T01:49:17.928Z,21.73
2023-04-25T01:51:45.452Z,20.75
2023-04-25T01:54:13.264Z,23.45
2023-04-25T01:56:41.032Z,20.63
2023-04-25T01:59:10.406Z,21.50
2023-04-25T02:01:37.151Z,23.02
2023-04-25T02:04:21.684Z,23.45
2023-04-25T02:06:48.378Z,23.05
2023-04-25T02:09:16.154Z,22.58
2023-04-25T02:11:47.693Z,24.42
2023-04-25T02:14:52.563Z,25.60
2023-04-25T02:17:27.286Z,23.48
2023-04-25T02:19:54.023Z,25.63
2023-04-25T02:22:20.652Z,26.77
2023-04-25T02:24:47.671Z,25.95
2023-04-25T02:27:14.744Z,27.00
2023-04-25T02:29:41.418Z,29.20
2023-04-25T02:32:10.365Z,30.27
2023-04-25T02:34:37.466Z,32.85
2023-04-25T02:37:04.150Z,34.20
2023-04-25T02:39:30.758Z,34.10
2023-04-25T02:41:57.628Z,38.42
2023-04-25T02:44:24.339Z,37.88
2023-04-25T02:46:51.354Z,35.10
2023-04-25T02:49:18.064Z,35.60
2023-04-25T02:51:44.693Z,34.78
2023-04-25T02:54:11.361Z,34.10
2023-04-25T02:56:41.792Z,34.63
2023-04-25T02:59:14.093Z,35.88
2023-04-25T03:01:43.993Z,33.50
2023-04-25T03:04:10.764Z,36.05
2023-04-25T03:06:37.433Z,38.58
2023-04-25T03:09:04.861Z,35.60
2023-04-25T03:11:31.571Z,36.42
2023-04-25T03:13:58.458Z,33.72
2023-04-25T03:16:25.313Z,34.58
2023-04-25T03:18:52.185Z,35.50
2023-04-25T03:21:19.010Z,33.40
2023-04-25T03:23:45.867Z,32.30
2023-04-25T03:26:12.537Z,27.98
2023-04-25T03:28:40.613Z,30.23
2023-04-25T03:31:07.558Z,29.55
2023-04-25T03:33:34.236Z,30.13
2023-04-25T03:36:01.454Z,29.58
2023-04-25T03:38:29.209Z,26.02
2023-04-25T03:40:57.243Z,24.98
2023-04-25T03:43:45.840Z,23.23
2023-04-25T03:46:14.124Z,20.48
2023-04-25T03:48:42.077Z,23.45
2023-04-25T03:51:11.082Z,20.88
2023-04-25T03:53:41.821Z,20.70
2023-04-25T03:56:21.354Z,17.50
2023-04-25T03:58:53.820Z,21.02
2023-04-25T04:01:24.415Z,18.42
2023-04-25T04:03:51.314Z,20.02
2023-04-25T04:06:18.739Z,18.55
2023-04-25T04:08:49.254Z,14.57
2023-04-25T04:11:16.073Z,17.42
2023-04-25T04:13:42.782Z,13.02
2023-04-25T04:16:09.640Z,11.05
2023-04-25T04:18:36.738Z,13.80
2023-04-25T04:21:03.618Z,14.18
2023-04-25T04:23:33.072Z,14.70
2023-04-25T04:26:00.668Z,14.80
2023-04-25T04:28:45.901Z,13.15
2023-04-25T04:31:20.527Z,18.33
2023-04-25T04:33:48.019Z,13.52
2023-04-25T04:36:16.719Z,12.75
2023-04-25T04:38:43.454Z,11.45
2023-04-25T04:44:03.901Z,11.83
2023-04-25T04:46:47.640Z,13.40
2023-04-25T04:49:41.008Z,12.27
2023-04-25T04:52:26.121Z,13.10
2023-04-25T04:55:00.032Z,14.37
2023-04-25T04:57:42.024Z,13.95
2023-04-25T05:00:22.714Z,15.32
2023-04-25T05:03:15.546Z,15.93
2023-04-25T05:06:03.757Z,15.10
2023-04-25T05:08:38.116Z,15.88
2023-04-25T05:11:37.273Z,14.82
2023-04-25T05:14:19.512Z,14.52
2023-04-25T05:17:07.478Z,14.70
2023-04-25T05:19:46.337Z,14.43
2023-04-25T05:22:24.087Z,13.95
2023-04-25T05:24:59.424Z,16.13
2023-04-25T05:27:45.119Z,16.60
2023-04-25T05:30:23.131Z,17.63
2023-04-25T05:33:05.724Z,16.58
2023-04-25T05:35:33.278Z,18.20
2023-04-25T05:38:00.907Z,15.80
2023-04-25T05:41:03.174Z,17.45
2023-04-25T05:43:39.739Z,16.98
2023-04-25T05:46:20.828Z,15.50
2023-04-25T05:49:09.598Z,16.50
2023-04-25T05:51:58.627Z,15.80
2023-04-25T05:54:39.242Z,17.02
2023-04-25T05:57:06.053Z,14.60
2023-04-25T05:59:32.881Z,16.65
2023-04-25T06:01:59.701Z,16.92
2023-04-25T06:04:27.463Z,16.65
2023-04-25T06:06:54.810Z,15.90
2023-04-25T06:09:22.805Z,16.35
2023-04-25T06:11:49.552Z,17.58
2023-04-25T06:14:16.414Z,16.55
2023-04-25T06:16:47.962Z,17.58
2023-04-25T06:19:14.717Z,18.23
2023-04-25T06:21:42.512Z,17.70
2023-04-25T06:24:09.121Z,17.65
2023-04-25T06:26:35.803Z,17.73
2023-04-25T06:29:03.750Z,16.60
2023-04-25T06:31:33.309Z,17.77
2023-04-25T06:34:01.103Z,17.40
2023-04-25T06:36:29.388Z,18.50
2023-04-25T06:39:02.327Z,16.50
2023-04-25T06:41:29.023Z,14.05
2023-04-25T06:44:00.300Z,16.20
2023-04-25T06:46:49.627Z,14.63
2023-04-25T06:49:16.405Z,15.07
2023-04-25T06:51:43.623Z,14.45
2023-04-25T06:54:10.297Z,14.68
2023-04-25T06:56:44.691Z,15.65
2023-04-25T06:59:14.205Z,14.48
2023-04-25T07:01:41.819Z,13.68
2023-04-25T07:04:21.497Z,12.55
2023-04-25T07:06:54.988Z,13.38
2023-04-25T07:09:29.215Z,14.70
2023-04-25T07:11:56.093Z,16.42
2023-04-25T07:14:22.911Z,17.02
2023-04-25T07:16:50.465Z,14.52
2023-04-25T07:19:17.705Z,19.40
2023-04-25T07:21:44.390Z,14.82
2023-04-25T07:24:12.293Z,16.42
2023-04-25T07:26:43.793Z,18.35
2023-04-25T07:29:18.380Z,17.38
2023-04-25T07:31:45.164Z,21.63
2023-04-25T07:34:11.803Z,18.83
2023-04-25T07:36:39.128Z,17.50
2023-04-25T07:39:06.017Z,16.42
2023-04-25T07:41:33.332Z,18.70
2023-04-25T07:44:00.538Z,16.55
2023-04-25T07:46:29.391Z,17.15
2023-04-25T07:48:56.172Z,17.90
2023-04-25T07:51:23.149Z,20.02
2023-04-25T07:53:54.744Z,25.00
2023-04-25T07:56:21.612Z,24.20
2023-04-25T07:58:49.983Z,21.13
2023-04-25T08:01:19.786Z,23.23
2023-04-25T08:03:52.167Z,22.92
2023-04-25T08:06:24.040Z,23.58
2023-04-25T08:09:00.614Z,23.00
2023-04-25T08:11:36.132Z,23.42
2023-04-25T08:14:03.272Z,21.80
2023-04-25T08:16:32.644Z,20.25
2023-04-25T08:19:00.976Z,21.58
2023-04-25T08:21:28.516Z,20.90
2023-04-25T08:23:58.659Z,20.35
2023-04-25T08:26:29.911Z,22.85
2023-04-25T08:28:57.300Z,22.63
2023-04-25T08:31:24.044Z,25.55
2023-04-25T08:34:01.526Z,23.70
2023-04-25T08:36:39.178Z,27.75
2023-04-25T08:39:17.817Z,26.52
2023-04-25T08:41:59.023Z,28.45
2023-04-25T08:44:25.902Z,27.02
2023-04-25T08:46:53.528Z,24.52
2023-04-25T08:49:27.804Z,25.65
2023-04-25T08:51:59.488Z,26.77
2023-04-25T08:54:35.241Z,25.60
2023-04-25T08:57:04.648Z,25.50
2023-04-25T08:59:33.401Z,25.63
2023-04-25T09:02:01.464Z,27.35
2023-04-25T09:04:28.500Z,25.77
2023-04-25T09:06:55.718Z,25.23
2023-04-25T09:09:22.868Z,24.77
2023-04-25T09:11:49.807Z,25.63
2023-04-25T09:14:18.671Z,25.60
2023-04-25T09:17:03.244Z,28.08
2023-04-25T09:19:56.063Z,26.40
2023-04-25T09:22:27.319Z,27.33
2023-04-25T09:24:54.251Z,27.25
2023-04-25T09:27:26.024Z,24.88
2023-04-25T09:30:01.404Z,25.70
2023-04-25T09:32:33.294Z,25.50
2023-04-25T09:35:00.694Z,27.40
2023-04-25T09:37:30.767Z,26.38
2023-04-25T09:40:16.418Z,26.98
2023-04-25T09:42:54.853Z,29.98
2023-04-25T09:45:22.043Z,30.80
2023-04-25T09:47:48.740Z,31.45
2023-04-25T09:50:21.235Z,28.63
2023-04-25T09:53:06.604Z,28.42
2023-04-25T09:56:01.296Z,31.98
2023-04-25T09:58:32.923Z,30.42
2023-04-25T10:01:06.614Z,30.98
2023-04-25T10:03:42.846Z,32.40
2023-04-25T10:06:24.458Z,28.98
2023-04-25T10:08:54.478Z,31.35
2023-04-25T10:11:23.980Z,30.90
2023-04-25T10:13:51.731Z,28.88
2023-04-25T10:16:19.663Z,29.63
2023-04-25T10:18:46.354Z,27.92
2023-04-25T10:21:15.123Z,25.42
2023-04-25T10:23:42.043Z,28.15
2023-04-25T10:26:13.511Z,26.52
2023-04-25T10:29:01.816Z,27.30
2023-04-25T10:31:30.399Z,27.80
2023-04-25T10:33:57.558Z,27.02
2023-04-25T10:36:25.484Z,26.25
2023-04-25T10:38:52.416Z,28.23
2023-04-25T10:41:22.327Z,27.95
2023-04-25T10:43:51.496Z,29.98
2023-04-25T10:46:27.165Z,29.73
2023-04-25T10:48:59.371Z,28.52
2023-04-25T10:51:30.787Z,27.95
2023-04-25T10:54:04.578Z,28.95
2023-04-25T10:56:41.101Z,28.75
2023-04-25T10:59:11.657Z,27.90
2023-04-25T11:01:48.038Z,27.95
2023-04-25T11:04:32.096Z,28.10
2023-04-25T11:07:21.000Z,27.83
2023-04-25T11:09:47.934Z,27.48
2023-04-25T11:12:14.821Z,26.63
2023-04-25T11:14:41.918Z,25.58
2023-04-25T11:17:08.870Z,27.40
2023-04-25T11:19:35.865Z,27.95
2023-04-25T11:22:03.929Z,29.80
2023-04-25T11:24:32.300Z,29.00
2023-04-25T11:27:04.584Z,28.80
2023-04-25T11:29:33.061Z,29.23
2023-04-25T11:32:01.726Z,28.35
2023-04-25T11:34:31.670Z,28.88
2023-04-25T11:36:58.696Z,30.90
2023-04-25T11:39:26.627Z,29.83
2023-04-25T11:41:54.496Z,28.75
2023-04-25T11:44:22.304Z,28.33
2023-04-25T11:46:49.357Z,30.98
2023-04-25T11:49:18.353Z,29.52
2023-04-25T11:51:47.253Z,28.83
2023-04-25T11:54:14.639Z,29.92
2023-04-25T11:56:46.161Z,27.65
2023-04-25T11:59:13.897Z,28.02
2023-04-25T12:01:48.041Z,33.10
2023-04-25T12:04:19.401Z,27.83
2023-04-25T12:06:48.842Z,31.05
2023-04-25T12:09:19.296Z,30.67
2023-04-25T12:11:47.992Z,31.88
2023-04-25T12:14:29.683Z,33.38
2023-04-25T12:16:58.693Z,29.70
2023-04-25T12:19:26.829Z,30.48
2023-04-25T12:21:58.472Z,30.30
2023-04-25T12:24:28.097Z,29.27
2023-04-25T12:27:04.555Z,27.98
2023-04-25T12:29:41.951Z,29.17
2023-04-25T12:32:14.919Z,30.77
2023-04-25T12:34:41.534Z,31.13
2023-04-25T12:37:08.354Z,28.50
2023-04-25T12:39:35.150Z,29.05
2023-04-25T12:42:01.886Z,30.63
2023-04-25T12:44:28.540Z,29.95
2023-04-25T12:46:56.081Z,28.45
2023-04-25T12:49:23.240Z,29.42
2023-04-25T12:51:50.117Z,28.65
2023-04-25T12:54:16.849Z,26.58
2023-04-25T12:56:43.590Z,27.35
2023-04-25T12:59:10.479Z,30.17
2023-04-25T13:01:37.509Z,30.45
2023-04-25T13:04:04.616Z,29.50
2023-04-25T13:06:32.116Z,30.40
2023-04-25T13:08:58.878Z,31.90
2023-04-25T13:11:25.632Z,31.83
2023-04-25T13:13:52.703Z,31.52
2023-04-25T13:16:21.772Z,30.17
2023-04-25T13:18:48.801Z,31.17
2023-04-25T13:21:15.677Z,31.25
2023-04-25T13:23:47.166Z,31.80
2023-04-25T13:26:13.853Z,30.85
2023-04-25T13:28:42.934Z,30.92
2023-04-25T13:31:11.961Z,31.42
2023-04-25T13:33:38.652Z,30.88
2023-04-25T13:36:06.224Z,34.00
2023-04-25T13:38:33.353Z,32.22
2023-04-25T13:40:59.949Z,31.85
2023-04-25T13:43:26.700Z,28.70
2023-04-25T13:45:53.494Z,30.75
2023-04-25T13:48:20.869Z,32.33
2023-04-25T13:50:47.558Z,32.58
2023-04-25T13:53:14.322Z,31.23
2023-04-25T13:55:41.041Z,31.10
2023-04-25T13:58:10.831Z,30.92
2023-04-25T14:00:44.031Z,30.65
2023-04-25T14:03:10.809Z,31.60
2023-04-25T14:05:40.878Z,31.77
2023-04-25T14:08:10.807Z,30.55
2023-04-25T14:10:38.126Z,30.10
2023-04-25T14:13:06.181Z,32.97
2023-04-25T14:15:33.683Z,33.72
2023-04-25T14:18:01.555Z,30.25
2023-04-25T14:20:28.631Z,33.60
2023-04-25T14:22:56.896Z,34.10
2023-04-25T14:25:24.218Z,30.65
2023-04-25T14:27:51.522Z,30.17
2023-04-25T14:30:19.902Z,31.23
2023-04-25T14:32:47.018Z,32.05
2023-04-25T14:35:13.988Z,35.25
2023-04-25T14:37:41.321Z,32.75
2023-04-25T14:40:11.390Z,28.13
2023-04-25T14:42:38.374Z,32.92
2023-04-25T14:45:07.514Z,34.30
2023-04-25T14:47:34.698Z,35.65
2023-04-25T14:50:02.543Z,32.65
2023-04-25T14:52:29.684Z,33.13
2023-04-25T14:54:56.416Z,32.72
2023-04-25T14:57:23.193Z,32.08
2023-04-25T14:59:49.807Z,28.65
2023-04-25T15:02:16.726Z,31.90
2023-04-25T15:04:43.566Z,34.47
2023-04-25T15:07:11.139Z,32.97
2023-04-25T15:09:37.760Z,30.85
2023-04-25T15:12:04.662Z,33.45
2023-04-25T15:14:31.506Z,32.30
2023-04-25T15:16:58.278Z,33.22
2023-04-25T15:19:25.007Z,32.17
2023-04-25T15:21:51.646Z,34.50
2023-04-25T15:24:18.991Z,33.25
2023-04-25T15:26:46.664Z,31.67
2023-04-25T15:29:13.298Z,28.35
2023-04-25T15:31:39.902Z,27.70
2023-04-25T15:34:06.926Z,28.27
2023-04-25T15:36:33.616Z,26.48
2023-04-25T15:39:00.302Z,25.92
2023-04-25T15:41:27.257Z,24.48
2023-04-25T15:43:54.887Z,25.88
2023-04-25T15:46:24.530Z,26.90
2023-04-25T15:48:51.194Z,27.95
2023-04-25T15:51:17.951Z,27.20
2023-04-25T15:53:44.804Z,26.88
2023-04-25T15:56:11.452Z,27.83
2023-04-25T15:58:38.059Z,28.73
2023-04-25T16:01:04.988Z,26.70
2023-04-25T16:03:34.493Z,26.30
2023-04-25T16:06:02.982Z,28.70
2023-04-25T16:08:29.756Z,27.58
2023-04-25T16:10:57.346Z,25.83
2023-04-25T16:13:23.998Z,28.30
2023-04-25T16:15:50.804Z,28.33
2023-04-25T16:18:18.065Z,28.48
2023-04-25T16:20:45.006Z,29.08
2023-04-25T16:23:11.652Z,30.67
2023-04-25T16:25:38.363Z,30.67
2023-04-25T16:28:05.393Z,29.60
2023-04-25T16:30:32.257Z,28.15
2023-04-25T16:32:59.032Z,28.35
2023-04-25T16:35:26.042Z,29.52
2023-04-25T16:37:52.749Z,29.80
2023-04-25T16:40:19.565Z,29.98
2023-04-25T16:42:46.533Z,28.33
2023-04-25T16:45:14.240Z,29.85
2023-04-25T16:47:40.948Z,31.45
2023-04-25T16:50:08.254Z,30.70
2023-04-25T16:52:35.186Z,26.88
2023-04-25T16:55:01.855Z,29.92
2023-04-25T16:57:28.699Z,29.73
2023-04-25T16:59:56.553Z,29.45
2023-04-25T17:02:23.404Z,29.65
2023-04-25T17:04:50.267Z,31.50
2023-04-25T17:07:17.951Z,29.17
2023-04-25T17:09:44.795Z,30.55
2023-04-25T17:12:11.447Z,27.33
2023-04-25T17:14:38.963Z,29.40
2023-04-25T17:17:05.650Z,29.02
2023-04-25T17:19:32.386Z,27.92
2023-04-25T17:21:59.119Z,28.40
2023-04-25T17:24:25.884Z,28.35
2023-04-25T17:26:52.586Z,28.33
2023-04-25T17:29:19.333Z,32.97
2023-04-25T17:31:46.606Z,28.83
2023-04-25T17:34:17.780Z,27.48
2023-04-25T17:36:48.338Z,26.83
2023-04-25T17:39:17.035Z,28.50
2023-04-25T17:41:44.461Z,27.75
2023-04-25T17:44:11.820Z,28.10
2023-04-25T17:46:38.846Z,26.50
2023-04-25T17:49:06.040Z,26.02
2023-04-25T17:51:32.824Z,26.13
2023-04-25T17:53:59.406Z,26.73
2023-04-25T17:56:27.604Z,26.27
2023-04-25T17:58:55.524Z,28.10
2023-04-25T18:01:22.713Z,27.92
2023-04-25T18:03:50.417Z,29.67
2023-04-25T18:06:18.137Z,29.10
2023-04-25T18:08:45.263Z,28.45
2023-04-25T18:11:12.232Z,28.23
2023-04-25T18:13:40.608Z,28.00
2023-04-25T18:16:07.991Z,28.02
2023-04-25T18:18:35.932Z,27.65
2023-04-25T18:21:05.016Z,28.35
2023-04-25T18:23:33.675Z,28.90
2023-04-25T18:26:00.426Z,29.45
2023-04-25T18:28:27.021Z,22.73
2023-04-25T18:30:54.194Z,23.50
2023-04-25T18:33:23.724Z,24.75
2023-04-25T18:35:58.817Z,23.55
2023-04-25T18:41:06.172Z,22.95
2023-04-25T18:46:11.235Z,24.33
2023-04-25T18:48:37.926Z,23.70
2023-04-25T18:51:05.407Z,23.58
2023-04-25T18:53:32.265Z,22.70
2023-04-25T18:55:58.958Z,22.92
2023-04-25T18:58:26.210Z,26.15
2023-04-25T19:00:53.359Z,21.40
2023-04-25T19:03:21.753Z,20.98
2023-04-25T19:05:48.523Z,20.60
2023-04-25T19:08:15.162Z,22.02
2023-04-25T19:10:41.942Z,21.13
2023-04-25T19:13:08.594Z,21.05
2023-04-25T19:15:35.649Z,22.58
2023-04-25T19:18:02.713Z,23.38
2023-04-25T19:20:29.418Z,21.48
2023-04-25T19:22:56.676Z,21.17
2023-04-25T19:25:24.682Z,21.33
2023-04-25T19:27:51.340Z,22.02
2023-04-25T19:30:18.336Z,21.42
2023-04-25T19:32:45.764Z,22.00
2023-04-25T19:35:12.720Z,22.15
2023-04-25T19:37:40.983Z,21.73
2023-04-25T19:40:08.358Z,21.10
2023-04-25T19:42:35.328Z,21.42
2023-04-25T19:45:01.967Z,20.92
2023-04-25T19:47:28.640Z,21.70
2023-04-25T19:49:55.515Z,20.95
2023-04-25T19:52:22.175Z,20.33
2023-04-25T19:54:48.812Z,26.63
2023-04-25T19:57:15.449Z,25.17
2023-04-25T19:59:45.564Z,23.08
2023-04-25T20:02:12.191Z,21.95
2023-04-25T20:04:38.907Z,20.60
2023-04-25T20:07:05.620Z,19.63
2023-04-25T20:09:32.253Z,20.63
2023-04-25T20:11:58.931Z,19.35
2023-04-25T20:14:26.023Z,20.13
2023-04-25T20:16:53.801Z,19.50
2023-04-25T20:19:20.946Z,20.15
2023-04-25T20:21:47.593Z,20.13
2023-04-25T20:24:14.195Z,19.85
2023-04-25T20:26:40.934Z,20.27
2023-04-25T20:29:09.635Z,21.77
2023-04-25T20:31:37.036Z,19.52
2023-04-25T20:34:04.170Z,19.83
2023-04-25T20:36:31.958Z,21.95
2023-04-25T20:38:58.614Z,24.83
2023-04-25T20:41:25.427Z,27.35
2023-04-25T20:43:53.168Z,28.80
2023-04-25T20:46:20.091Z,26.92
2023-04-25T20:48:46.769Z,28.65
2023-04-25T20:51:13.391Z,28.65
2023-04-25T20:53:39.987Z,28.58
2023-04-25T20:56:06.732Z,24.17
2023-04-25T20:58:33.361Z,21.08
2023-04-25T21:01:01.133Z,20.27
2023-04-25T21:03:27.945Z,20.77
2023-04-25T21:05:54.902Z,20.25
2023-04-25T21:08:21.583Z,20.45
2023-04-25T21:10:48.646Z,21.23
2023-04-25T21:13:15.493Z,22.10
2023-04-25T21:15:42.162Z,22.02
2023-04-25T21:18:08.918Z,22.20
2023-04-25T21:20:36.083Z,21.48
2023-04-25T21:23:02.899Z,21.52
2023-04-25T21:25:31.185Z,21.30
2023-04-25T21:27:58.882Z,22.17
2023-04-25T21:30:26.113Z,22.73
2023-04-25T21:32:53.327Z,22.23
2023-04-25T21:35:21.690Z,22.85
2023-04-25T21:37:49.080Z,21.73
2023-04-25T21:40:15.956Z,22.20
2023-04-25T21:42:44.357Z,23.10
2023-04-25T21:45:11.417Z,22.05
2023-04-25T21:47:38.133Z,21.88
2023-04-25T21:50:05.184Z,21.83
2023-04-25T21:52:32.196Z,21.67
2023-04-25T21:54:58.884Z,21.88
2023-04-25T21:57:26.240Z,21.00
2023-04-25T21:59:53.392Z,22.40
2023-04-25T22:02:20.248Z,21.92
2023-04-25T22:04:47.502Z,21.73
2023-04-25T22:07:14.854Z,20.77
2023-04-25T22:09:53.649Z,22.48
2023-04-25T22:12:22.478Z,22.02
2023-04-25T22:14:49.125Z,22.90
2023-04-25T22:17:15.771Z,23.92
2023-04-25T22:19:43.136Z,21.17
2023-04-25T22:22:09.776Z,21.38
2023-04-25T22:24:36.442Z,20.75
2023-04-25T22:27:03.083Z,20.23
2023-04-25T22:29:29.703Z,21.40
2023-04-25T22:31:56.721Z,22.13
2023-04-25T22:34:23.390Z,23.80
2023-04-25T22:36:49.993Z,22.73
2023-04-25T22:39:17.449Z,22.02
2023-04-25T22:41:44.083Z,21.65
2023-04-25T22:44:11.808Z,21.75
2023-04-25T22:46:38.418Z,20.95
2023-04-25T22:49:05.304Z,21.08
2023-04-25T22:51:32.992Z,21.77
2023-04-25T22:54:00.493Z,21.60
2023-04-25T22:56:29.667Z,20.63
2023-04-25T22:58:56.506Z,21.13
2023-04-25T23:01:23.248Z,20.08
2023-04-25T23:03:49.975Z,21.67
2023-04-25T23:06:17.047Z,20.73
2023-04-25T23:08:44.340Z,21.77
2023-04-25T23:11:10.987Z,21.10
2023-04-25T23:13:37.658Z,21.27
2023-04-25T23:16:10.996Z,20.80
2023-04-25T23:18:39.054Z,20.05
2023-04-25T23:21:09.294Z,19.42
2023-04-25T23:23:36.628Z,19.13
2023-04-25T23:26:10.516Z,18.85
2023-04-25T23:28:41.515Z,19.03
2023-04-25T23:31:09.994Z,19.42
2023-04-25T23:33:36.978Z,20.48
2023-04-25T23:36:03.993Z,20.77
2023-04-25T23:38:30.801Z,19.75
2023-04-25T23:40:57.414Z,18.35
2023-04-25T23:43:24.050Z,18.33
2023-04-25T23:45:50.730Z,18.65
2023-04-25T23:48:17.432Z,18.58
2023-04-25T23:50:44.080Z,18.58
2023-04-25T23:53:11.286Z,17.95
2023-04-25T23:55:37.966Z,17.58
2023-04-25T23:58:04.685Z,17.02
